Time;durP1;ratioP1;P1;durP2;ratioP2;P2;SDS_P1;SDS_P2;PMS_P1;PMS_P2;Temp;Humidity;BMP_temperature;BMP_pressure;BME280_temperature;BME280_humidity;BME280_pressure;Samples;Min_cycle;Max_cycle;Signal;HPM_P1;HPM_P2
2023/06/04 00:00:25;;;;;;;5.45;4.43;;;12.90;99.90;;;;;;5061909;28;20067;-37
2023/06/04 00:02:51;;;;;;;7.47;4.20;;;12.90;99.90;;;;;;5061088;28;20083;-37
2023/06/04 00:05:17;;;;;;;7.72;4.00;;;12.80;99.90;;;;;;5068144;28;20251;-37
2023/06/04 00:07:42;;;;;;;7.85;4.57;;;12.80;99.90;;;;;;5064154;28;20060;-37
2023/06/04 00:10:09;;;;;;;8.15;3.90;;;12.80;99.90;;;;;;5062029;28;20032;-36
2023/06/04 00:12:34;;;;;;;9.40;4.00;;;12.80;99.90;;;;;;5056947;28;20090;-37
2023/06/04 00:15:00;;;;;;;7.38;3.80;;;12.90;99.90;;;;;;5058036;28;20470;-37
2023/06/04 00:17:25;;;;;;;6.28;4.03;;;13.00;99.90;;;;;;5061210;28;20415;-38
2023/06/04 00:19:51;;;;;;;5.35;3.53;;;13.00;99.90;;;;;;5063078;28;20032;-37
2023/06/04 00:22:17;;;;;;;7.47;3.95;;;13.00;99.90;;;;;;5061144;28;20060;-38
2023/06/04 00:24:42;;;;;;;4.75;3.70;;;12.90;99.90;;;;;;5062987;28;20031;-36
2023/06/04 00:27:08;;;;;;;4.75;3.17;;;12.90;99.90;;;;;;5060813;28;20029;-37
2023/06/04 00:29:34;;;;;;;6.57;3.40;;;12.90;99.90;;;;;;5062720;28;20025;-37
2023/06/04 00:32:00;;;;;;;4.45;3.33;;;12.90;99.90;;;;;;5060321;28;20378;-37
2023/06/04 00:34:25;;;;;;;5.38;2.75;;;12.90;99.90;;;;;;5060583;28;20029;-37
2023/06/04 00:36:51;;;;;;;4.55;3.40;;;12.80;99.90;;;;;;5060847;28;20117;-37
2023/06/04 00:39:17;;;;;;;4.30;3.35;;;12.80;99.90;;;;;;5057809;28;20037;-36
2023/06/04 00:41:42;;;;;;;5.10;3.10;;;12.70;99.90;;;;;;5062612;28;20071;-36
2023/06/04 00:44:08;;;;;;;3.67;3.15;;;12.70;99.90;;;;;;5059489;28;20490;-36
2023/06/04 00:46:35;;;;;;;4.03;3.00;;;12.60;99.90;;;;;;5056982;28;20017;-36
2023/06/04 00:49:01;;;;;;;4.93;3.22;;;12.60;99.90;;;;;;5061645;28;20071;-36
2023/06/04 00:51:30;;;;;;;4.75;2.95;;;12.60;99.90;;;;;;5062597;28;20040;-36
2023/06/04 00:53:58;;;;;;;3.70;2.72;;;12.60;99.90;;;;;;5062448;28;20234;-36
2023/06/04 00:56:23;;;;;;;3.50;2.88;;;12.60;99.90;;;;;;5059162;28;20151;-36
2023/06/04 00:58:49;;;;;;;6.35;3.30;;;12.50;99.90;;;;;;5061080;28;20097;-37
2023/06/04 01:01:40;;;;;;;4.57;3.30;;;12.50;99.90;;;;;;5055623;28;20037;-30
2023/06/04 01:04:14;;;;;;;3.80;2.72;;;12.50;99.90;;;;;;5060058;28;20060;-28
2023/06/04 01:06:43;;;;;;;3.78;2.80;;;12.40;99.90;;;;;;5058692;28;20543;-34
2023/06/04 01:09:10;;;;;;;4.05;2.55;;;12.30;99.90;;;;;;5061831;28;20062;-32
2023/06/04 01:11:38;;;;;;;5.70;3.38;;;12.40;99.90;;;;;;5061871;28;20048;-29
2023/06/04 01:14:08;;;;;;;3.30;2.97;;;12.30;99.90;;;;;;5060431;28;20032;-31
2023/06/04 01:16:41;;;;;;;4.78;3.40;;;12.20;99.90;;;;;;5060919;28;20036;-33
2023/06/04 01:19:33;;;;;;;4.05;2.88;;;12.20;99.90;;;;;;5041024;28;20094;-30
2023/06/04 01:22:04;;;;;;;4.22;2.90;;;12.20;99.90;;;;;;5059771;28;20032;-30
2023/06/04 01:24:36;;;;;;;3.45;2.90;;;12.20;99.90;;;;;;5061354;28;20048;-30
2023/06/04 01:27:03;;;;;;;5.97;3.17;;;12.10;99.90;;;;;;5064407;28;20027;-31
2023/06/04 01:29:29;;;;;;;2.78;2.50;;;12.20;99.90;;;;;;5060722;28;20059;-33
2023/06/04 01:31:56;;;;;;;3.17;2.65;;;12.20;99.90;;;;;;5059804;28;20110;-31
2023/06/04 01:34:22;;;;;;;4.00;2.85;;;12.20;99.90;;;;;;5060374;28;20461;-29
2023/06/04 01:36:48;;;;;;;4.00;2.85;;;12.10;99.90;;;;;;5060186;28;20025;-29
2023/06/04 01:39:14;;;;;;;3.92;2.67;;;12.00;99.90;;;;;;5060973;28;20024;-30
2023/06/04 01:41:39;;;;;;;5.35;2.75;;;12.00;99.90;;;;;;5055319;28;20474;-30
2023/06/04 01:44:05;;;;;;;2.97;2.35;;;12.00;99.90;;;;;;5059964;28;20409;-32
2023/06/04 01:46:30;;;;;;;4.30;2.70;;;11.90;99.90;;;;;;5060027;28;20159;-32
2023/06/04 01:48:56;;;;;;;3.53;2.72;;;11.90;99.90;;;;;;5061301;28;20029;-30
2023/06/04 01:51:22;;;;;;;4.00;2.70;;;12.00;99.90;;;;;;5059165;28;20021;-32
2023/06/04 01:53:47;;;;;;;4.78;2.63;;;11.80;99.90;;;;;;5060370;28;20029;-30
2023/06/04 01:56:14;;;;;;;3.30;2.40;;;11.90;99.90;;;;;;5058056;28;20237;-30
2023/06/04 01:58:40;;;;;;;4.68;2.50;;;11.80;99.90;;;;;;5059952;28;20060;-29
2023/06/04 02:01:06;;;;;;;2.90;2.40;;;11.80;99.90;;;;;;5056889;28;20122;-31
2023/06/04 02:03:36;;;;;;;4.35;2.45;;;11.80;99.90;;;;;;5059153;28;20028;-29
2023/06/04 02:06:04;;;;;;;5.10;2.75;;;11.80;99.90;;;;;;5058378;28;20028;-31
2023/06/04 02:08:30;;;;;;;6.13;2.60;;;11.80;99.90;;;;;;5058328;28;20052;-33
2023/06/04 02:10:55;;;;;;;3.78;2.55;;;11.70;99.90;;;;;;5055954;28;20083;-29
2023/06/04 02:13:21;;;;;;;4.00;2.40;;;11.70;99.90;;;;;;5059741;28;20085;-30
2023/06/04 02:15:47;;;;;;;2.88;2.42;;;11.80;99.90;;;;;;5061248;28;20043;-31
2023/06/04 02:18:16;;;;;;;4.80;2.47;;;11.90;99.90;;;;;;5061744;28;20036;-30
2023/06/04 02:20:43;;;;;;;3.90;2.70;;;11.70;99.90;;;;;;5063935;28;20025;-31
2023/06/04 02:23:09;;;;;;;3.40;2.50;;;11.80;99.90;;;;;;5057720;28;20063;-30
2023/06/04 02:25:35;;;;;;;3.17;2.53;;;11.70;99.90;;;;;;5053643;28;20119;-30
2023/06/04 02:28:00;;;;;;;4.22;2.63;;;11.80;99.90;;;;;;5058750;28;20432;-30
2023/06/04 02:30:26;;;;;;;3.67;2.67;;;11.70;99.90;;;;;;5060789;28;20043;-30
2023/06/04 02:32:51;;;;;;;7.65;2.47;;;11.60;99.90;;;;;;5054442;28;20033;-32
2023/06/04 02:35:21;;;;;;;3.22;2.65;;;11.60;99.90;;;;;;5040528;28;20028;-33
2023/06/04 02:37:46;;;;;;;3.85;2.63;;;11.70;99.90;;;;;;5043152;28;20032;-31
2023/06/04 02:40:12;;;;;;;8.00;2.80;;;11.60;99.90;;;;;;5059162;28;20111;-30
2023/06/04 02:42:37;;;;;;;3.13;2.47;;;11.70;99.90;;;;;;5059582;28;20031;-31
2023/06/04 02:45:03;;;;;;;4.60;2.50;;;11.60;99.90;;;;;;5060726;28;20033;-33
2023/06/04 02:47:29;;;;;;;2.78;2.38;;;11.50;99.90;;;;;;5062433;28;20148;-31
2023/06/04 02:49:54;;;;;;;4.38;2.58;;;11.40;99.90;;;;;;5059097;28;20075;-32
2023/06/04 02:52:22;;;;;;;2.90;2.33;;;11.40;99.90;;;;;;5037322;28;20064;-31
2023/06/04 02:54:48;;;;;;;3.40;2.42;;;11.40;99.90;;;;;;5060559;28;20059;-33
2023/06/04 02:57:13;;;;;;;4.10;2.25;;;11.40;99.90;;;;;;5059971;28;20032;-31
2023/06/04 02:59:39;;;;;;;4.32;2.42;;;11.30;99.90;;;;;;5059444;28;20033;-32
2023/06/04 03:02:05;;;;;;;6.55;2.47;;;11.30;99.90;;;;;;5054711;28;20103;-34
2023/06/04 03:04:34;;;;;;;5.10;2.70;;;11.40;99.90;;;;;;5062294;28;20028;-30
2023/06/04 03:07:04;;;;;;;2.75;2.38;;;11.40;99.90;;;;;;5058694;28;20032;-32
2023/06/04 03:09:33;;;;;;;3.72;2.47;;;11.40;99.90;;;;;;5062063;28;20033;-33
2023/06/04 03:12:02;;;;;;;6.68;3.15;;;11.40;99.90;;;;;;5060366;28;20080;-33
2023/06/04 03:14:36;;;;;;;3.60;2.33;;;11.40;99.90;;;;;;5059132;28;20924;-31
2023/06/04 03:17:10;;;;;;;4.75;2.30;;;11.40;99.90;;;;;;5056599;28;20033;-33
2023/06/04 03:19:40;;;;;;;3.05;2.20;;;11.50;99.90;;;;;;5057783;28;20025;-31
2023/06/04 03:22:07;;;;;;;3.17;2.50;;;11.50;99.90;;;;;;5054477;28;20111;-34
2023/06/04 03:24:38;;;;;;;3.67;2.42;;;11.50;99.90;;;;;;5060077;28;20513;-32
2023/06/04 03:27:05;;;;;;;2.40;2.13;;;11.40;99.90;;;;;;5061436;28;20150;-31
2023/06/04 03:29:34;;;;;;;3.53;2.30;;;11.40;99.90;;;;;;5058690;28;20040;-33
2023/06/04 03:32:00;;;;;;;4.03;2.45;;;11.30;99.90;;;;;;5060581;28;20128;-34
2023/06/04 03:34:27;;;;;;;4.43;2.38;;;11.30;99.90;;;;;;5063878;28;20035;-32
2023/06/04 03:36:53;;;;;;;4.07;2.30;;;11.30;99.90;;;;;;5066081;28;20171;-33
2023/06/04 03:39:19;;;;;;;3.65;2.10;;;11.40;99.90;;;;;;5066568;28;20024;-32
2023/06/04 03:41:45;;;;;;;3.35;2.20;;;11.40;99.90;;;;;;5058070;28;20028;-33
2023/06/04 03:44:15;;;;;;;3.97;2.50;;;11.40;99.90;;;;;;5061628;28;20039;-32
2023/06/04 03:46:44;;;;;;;2.45;2.08;;;11.40;99.90;;;;;;5060552;28;20047;-30
2023/06/04 03:49:11;;;;;;;2.47;2.10;;;11.40;99.90;;;;;;5057001;28;20662;-31
2023/06/04 03:51:37;;;;;;;2.22;1.77;;;11.40;99.90;;;;;;5064203;28;20598;-31
2023/06/04 03:54:04;;;;;;;4.35;2.45;;;11.40;99.90;;;;;;5062781;28;20013;-34
2023/06/04 03:56:30;;;;;;;4.40;2.30;;;11.40;99.90;;;;;;5060239;28;20039;-30
2023/06/04 03:58:56;;;;;;;4.00;2.15;;;11.40;99.90;;;;;;5058463;28;20447;-32
2023/06/04 04:01:23;;;;;;;4.28;2.05;;;11.40;99.90;;;;;;5061936;28;20082;-33
2023/06/04 04:03:49;;;;;;;5.65;2.45;;;11.40;99.90;;;;;;5061282;28;20557;-31
2023/06/04 04:06:15;;;;;;;3.40;2.50;;;11.40;99.90;;;;;;5061660;28;20037;-32
2023/06/04 04:08:44;;;;;;;2.75;2.38;;;11.50;99.90;;;;;;5055570;28;20577;-30
2023/06/04 04:11:14;;;;;;;2.60;2.20;;;11.50;99.90;;;;;;5058592;28;20536;-30
2023/06/04 04:13:40;;;;;;;3.92;2.05;;;11.60;99.90;;;;;;5047784;28;20090;-30
2023/06/04 04:16:06;;;;;;;2.95;2.30;;;11.60;99.90;;;;;;5062337;28;20036;-31
2023/06/04 04:18:36;;;;;;;3.15;2.10;;;11.70;99.90;;;;;;5061217;28;20127;-32
2023/06/04 04:21:02;;;;;;;2.97;2.20;;;11.70;99.90;;;;;;5061426;28;20265;-32
2023/06/04 04:23:29;;;;;;;3.28;2.30;;;11.70;99.90;;;;;;5056549;28;20639;-32
2023/06/04 04:25:56;;;;;;;2.58;1.95;;;11.70;99.90;;;;;;5050519;28;20064;-34
2023/06/04 04:28:22;;;;;;;3.53;2.70;;;11.60;99.90;;;;;;5048724;28;20470;-31
2023/06/04 04:30:48;;;;;;;5.25;2.30;;;11.50;99.90;;;;;;5046354;28;20037;-32
2023/06/04 04:33:15;;;;;;;2.92;2.22;;;11.50;99.90;;;;;;5066695;28;21097;-31
2023/06/04 04:35:42;;;;;;;3.67;2.45;;;11.70;99.90;;;;;;5059664;28;20033;-30
2023/06/04 04:38:09;;;;;;;3.97;2.40;;;11.80;99.90;;;;;;5053772;28;20029;-30
2023/06/04 04:40:35;;;;;;;3.00;2.20;;;11.90;99.90;;;;;;5064392;28;20032;-32
2023/06/04 04:43:01;;;;;;;5.28;2.60;;;11.90;99.90;;;;;;5058287;28;20428;-31
2023/06/04 04:45:26;;;;;;;2.92;2.38;;;11.90;99.90;;;;;;5060510;28;20075;-35
2023/06/04 04:47:52;;;;;;;3.78;2.40;;;11.80;99.90;;;;;;5062487;28;20036;-31
2023/06/04 04:50:17;;;;;;;3.80;2.10;;;11.90;99.90;;;;;;5060406;28;20032;-30
2023/06/04 04:52:43;;;;;;;3.05;2.22;;;11.90;99.90;;;;;;5060848;28;20513;-33
2023/06/04 04:55:09;;;;;;;3.40;2.60;;;11.90;99.90;;;;;;5062293;28;20543;-31
2023/06/04 04:57:34;;;;;;;2.85;2.35;;;11.90;99.90;;;;;;5063235;28;20059;-31
2023/06/04 05:00:01;;;;;;;3.72;1.98;;;11.90;99.90;;;;;;5039526;28;20060;-31
2023/06/04 05:02:26;;;;;;;3.42;2.38;;;12.00;99.90;;;;;;5060974;28;20548;-33
2023/06/04 05:04:52;;;;;;;7.30;2.50;;;12.00;99.90;;;;;;5063472;28;20048;-33
2023/06/04 05:07:19;;;;;;;2.40;2.20;;;12.10;99.90;;;;;;5055517;28;20032;-30
2023/06/04 05:09:45;;;;;;;7.70;2.73;;;12.10;99.90;;;;;;5058941;28;20035;-33
2023/06/04 05:12:11;;;;;;;2.70;2.28;;;12.20;99.90;;;;;;5061966;28;20053;-33
2023/06/04 05:14:36;;;;;;;4.75;2.28;;;12.30;99.90;;;;;;5038551;28;20091;-34
2023/06/04 05:17:06;;;;;;;3.92;2.38;;;12.30;99.90;;;;;;5060438;28;20123;-31
2023/06/04 05:19:32;;;;;;;3.33;1.95;;;12.40;99.90;;;;;;5059553;28;20450;-32
2023/06/04 05:22:00;;;;;;;3.03;2.45;;;12.50;99.90;;;;;;5064308;28;20429;-33
2023/06/04 05:24:26;;;;;;;5.18;2.38;;;12.60;99.90;;;;;;5049835;28;20074;-30
2023/06/04 05:26:51;;;;;;;3.50;2.78;;;12.70;99.90;;;;;;5063691;28;20409;-30
2023/06/04 05:29:17;;;;;;;4.18;2.42;;;12.80;99.90;;;;;;5063206;28;20024;-32
2023/06/04 05:31:43;;;;;;;3.30;2.28;;;12.90;99.90;;;;;;5057731;28;20036;-31
2023/06/04 05:34:09;;;;;;;2.70;2.20;;;13.00;99.90;;;;;;5055617;28;20024;-30
2023/06/04 05:36:35;;;;;;;2.80;2.45;;;13.20;99.90;;;;;;5057833;28;20028;-34
2023/06/04 05:39:01;;;;;;;5.45;2.33;;;13.30;99.90;;;;;;5059378;28;20036;-33
2023/06/04 05:41:27;;;;;;;3.60;2.30;;;13.40;99.90;;;;;;5060700;28;20478;-32
2023/06/04 05:43:53;;;;;;;2.50;1.95;;;13.50;99.90;;;;;;5062548;28;20099;-31
2023/06/04 05:46:19;;;;;;;3.78;2.35;;;13.60;99.90;;;;;;5062198;28;20055;-31
2023/06/04 05:48:45;;;;;;;3.15;2.70;;;13.70;99.90;;;;;;5059598;28;20394;-30
2023/06/04 05:51:13;;;;;;;3.42;2.35;;;13.80;99.90;;;;;;5066029;28;20031;-33
2023/06/04 05:53:38;;;;;;;3.33;2.38;;;14.00;99.90;;;;;;5060789;28;20012;-30
2023/06/04 05:56:04;;;;;;;4.97;2.88;;;14.10;99.90;;;;;;5058491;28;20047;-31
2023/06/04 05:58:32;;;;;;;3.97;2.65;;;14.20;99.90;;;;;;5059682;28;20061;-31
2023/06/04 06:00:58;;;;;;;3.90;2.55;;;14.40;99.90;;;;;;5060730;28;20049;-30
2023/06/04 06:03:23;;;;;;;2.80;2.50;;;14.40;99.90;;;;;;5058157;28;20031;-32
2023/06/04 06:05:49;;;;;;;3.65;2.60;;;14.40;99.90;;;;;;5060498;28;20099;-33
2023/06/04 06:08:15;;;;;;;4.82;2.83;;;14.50;99.90;;;;;;5055876;28;20037;-30
2023/06/04 06:10:40;;;;;;;5.88;2.40;;;14.60;99.90;;;;;;5057684;28;20052;-30
2023/06/04 06:13:06;;;;;;;3.50;2.40;;;14.70;99.90;;;;;;5058841;28;20028;-32
2023/06/04 06:15:32;;;;;;;3.40;2.03;;;14.80;99.90;;;;;;5039865;28;20060;-30
2023/06/04 06:17:58;;;;;;;3.38;2.47;;;15.00;99.90;;;;;;5059700;28;20024;-31
2023/06/04 06:20:24;;;;;;;2.53;2.33;;;15.00;99.90;;;;;;5062178;28;20028;-30
2023/06/04 06:22:49;;;;;;;3.72;2.25;;;15.10;99.90;;;;;;5061555;28;20016;-31
2023/06/04 06:25:15;;;;;;;3.75;2.55;;;15.20;99.90;;;;;;5062077;28;20517;-32
2023/06/04 06:27:41;;;;;;;5.13;2.58;;;15.30;99.90;;;;;;5061633;28;20024;-30
2023/06/04 06:30:08;;;;;;;4.72;2.60;;;15.40;99.90;;;;;;5058578;28;20044;-34
2023/06/04 06:32:35;;;;;;;4.15;2.65;;;15.50;99.90;;;;;;5057034;28;20064;-31
2023/06/04 06:35:01;;;;;;;6.20;2.60;;;15.60;99.90;;;;;;5058780;28;20394;-30
2023/06/04 06:37:26;;;;;;;4.75;2.60;;;15.80;99.90;;;;;;5058931;28;20087;-31
2023/06/04 06:39:52;;;;;;;5.55;2.70;;;15.80;99.90;;;;;;5062263;28;20454;-32
2023/06/04 06:42:19;;;;;;;3.95;2.65;;;15.90;99.90;;;;;;5058407;28;20032;-30
2023/06/04 06:44:45;;;;;;;3.83;2.50;;;15.90;99.90;;;;;;5061604;28;20090;-31
2023/06/04 06:47:13;;;;;;;3.65;2.40;;;16.00;99.90;;;;;;5042791;28;20421;-31
2023/06/04 06:49:39;;;;;;;3.72;2.75;;;16.10;99.90;;;;;;5055843;28;20033;-32
2023/06/04 06:52:05;;;;;;;4.60;2.58;;;16.10;99.90;;;;;;5057615;28;20036;-31
2023/06/04 06:54:31;;;;;;;3.05;2.60;;;16.20;99.90;;;;;;5059170;28;20036;-33
2023/06/04 06:56:57;;;;;;;4.45;2.63;;;16.30;99.90;;;;;;5058378;28;20029;-34
2023/06/04 06:59:23;;;;;;;2.67;2.33;;;16.30;99.90;;;;;;5054501;28;20071;-33
2023/06/04 07:01:49;;;;;;;4.93;2.63;;;16.30;99.90;;;;;;5056935;28;20494;-32
2023/06/04 07:04:15;;;;;;;3.47;2.85;;;16.40;99.90;;;;;;5056063;28;20037;-34
2023/06/04 07:06:41;;;;;;;3.25;2.22;;;16.50;99.90;;;;;;5059589;28;20377;-30
2023/06/04 07:09:07;;;;;;;7.18;3.03;;;16.50;99.90;;;;;;5062793;28;20025;-31
2023/06/04 07:11:33;;;;;;;3.55;2.25;;;16.60;99.90;;;;;;5060848;28;20047;-32
2023/06/04 07:13:58;;;;;;;5.03;2.42;;;16.80;99.90;;;;;;5066400;28;20127;-33
2023/06/04 07:16:24;;;;;;;2.45;2.22;;;16.90;99.90;;;;;;5061974;28;20400;-30
2023/06/04 07:18:50;;;;;;;5.85;2.80;;;17.00;99.90;;;;;;5062885;28;20441;-35
2023/06/04 07:21:16;;;;;;;5.95;3.00;;;17.10;99.90;;;;;;5063322;28;20033;-30
2023/06/04 07:23:41;;;;;;;3.80;2.90;;;17.20;99.90;;;;;;5062245;28;20024;-36
2023/06/04 07:26:08;;;;;;;4.25;3.08;;;17.20;99.90;;;;;;5062294;28;20063;-35
2023/06/04 07:28:33;;;;;;;3.83;2.67;;;17.30;99.90;;;;;;5061080;28;20028;-36
2023/06/04 07:31:00;;;;;;;5.10;2.88;;;17.40;99.90;;;;;;5062985;28;20041;-34
2023/06/04 07:33:26;;;;;;;5.68;2.72;;;17.40;99.90;;;;;;5065184;28;20029;-34
2023/06/04 07:35:51;;;;;;;4.00;2.95;;;17.40;99.90;;;;;;5063731;28;20429;-35
2023/06/04 07:38:17;;;;;;;5.63;3.00;;;17.50;99.90;;;;;;5064759;28;20583;-36
2023/06/04 07:40:44;;;;;;;3.75;2.88;;;17.50;99.90;;;;;;5066896;28;20105;-36
2023/06/04 07:43:10;;;;;;;5.57;3.10;;;17.60;99.90;;;;;;5065108;28;20024;-35
2023/06/04 07:45:36;;;;;;;3.55;2.70;;;17.80;99.90;;;;;;5060949;28;20025;-35
2023/06/04 07:48:02;;;;;;;3.65;2.78;;;17.90;99.90;;;;;;5061574;28;20028;-36
2023/06/04 07:50:27;;;;;;;5.07;2.67;;;18.00;99.90;;;;;;5067190;28;20033;-33
2023/06/04 07:52:53;;;;;;;3.83;3.03;;;18.00;99.90;;;;;;5059992;28;20032;-35
2023/06/04 07:55:18;;;;;;;4.55;2.60;;;18.00;99.90;;;;;;5064855;28;20111;-34
2023/06/04 07:57:45;;;;;;;5.65;2.95;;;18.20;99.90;;;;;;5061945;28;20013;-36
2023/06/04 08:00:11;;;;;;;4.13;2.85;;;18.30;99.90;;;;;;5062681;28;20028;-37
2023/06/04 08:02:36;;;;;;;3.15;2.85;;;18.30;99.90;;;;;;5064953;28;20033;-36
2023/06/04 08:05:03;;;;;;;6.15;2.80;;;18.30;99.90;;;;;;5064458;28;20036;-32
2023/06/04 08:07:30;;;;;;;4.03;2.50;;;18.40;99.90;;;;;;5044160;28;20473;-36
2023/06/04 08:09:56;;;;;;;5.47;2.75;;;18.60;99.90;;;;;;5063399;28;20036;-36
2023/06/04 08:12:22;;;;;;;3.40;2.38;;;18.80;99.90;;;;;;5062435;28;20044;-34
2023/06/04 08:14:50;;;;;;;4.28;2.92;;;18.70;99.90;;;;;;5065125;28;20036;-36
2023/06/04 08:17:15;;;;;;;3.50;2.70;;;18.90;99.90;;;;;;5062106;28;20052;-33
2023/06/04 08:19:41;;;;;;;4.63;3.08;;;19.10;99.90;;;;;;5062845;28;20398;-34
2023/06/04 08:22:09;;;;;;;3.55;2.58;;;19.10;99.90;;;;;;5061079;28;20040;-33
2023/06/04 08:24:34;;;;;;;4.97;2.47;;;19.30;99.90;;;;;;5059253;28;20443;-36
2023/06/04 08:27:00;;;;;;;3.42;2.60;;;19.30;99.90;;;;;;5064091;28;20048;-35
2023/06/04 08:29:26;;;;;;;3.78;2.22;;;19.20;99.90;;;;;;5065361;28;20095;-35
2023/06/04 08:31:51;;;;;;;4.40;2.40;;;19.20;99.90;;;;;;5061003;28;20397;-34
2023/06/04 08:34:17;;;;;;;5.45;2.70;;;19.30;99.90;;;;;;5065283;28;20032;-37
2023/06/04 08:36:43;;;;;;;3.90;2.67;;;19.40;99.90;;;;;;5058926;28;20025;-33
2023/06/04 08:39:09;;;;;;;4.88;2.80;;;19.40;99.90;;;;;;5058557;28;20067;-36
2023/06/04 08:41:43;;;;;;;5.18;2.70;;;19.50;99.90;;;;;;5059058;28;20040;-35
2023/06/04 08:44:09;;;;;;;3.78;2.70;;;19.60;99.90;;;;;;5048317;28;20032;-34
2023/06/04 08:46:42;;;;;;;4.80;3.00;;;19.80;99.90;;;;;;5063618;28;20045;-36
2023/06/04 08:49:08;;;;;;;3.35;2.47;;;19.80;99.90;;;;;;5062709;28;20037;-34
2023/06/04 08:51:37;;;;;;;4.00;2.95;;;20.00;99.90;;;;;;5063027;28;20033;-33
2023/06/04 08:54:07;;;;;;;3.42;2.65;;;20.10;99.90;;;;;;5056821;28;20056;-34
2023/06/04 08:56:34;;;;;;;4.55;2.80;;;19.90;99.90;;;;;;5059896;28;20082;-35
2023/06/04 08:59:06;;;;;;;4.32;2.60;;;19.90;99.90;;;;;;5059062;28;20067;-33
2023/06/04 09:01:33;;;;;;;5.88;2.50;;;20.00;99.90;;;;;;5065283;28;20072;-35
2023/06/04 09:04:01;;;;;;;5.18;2.63;;;20.10;99.90;;;;;;5061670;28;20385;-33
2023/06/04 09:06:27;;;;;;;3.80;2.38;;;20.30;99.90;;;;;;5063453;28;20062;-35
2023/06/04 09:08:57;;;;;;;4.32;2.55;;;20.30;99.90;;;;;;5060271;28;20033;-36
2023/06/04 09:11:27;;;;;;;4.40;3.53;;;20.30;99.90;;;;;;5043544;28;20044;-34
2023/06/04 09:13:53;;;;;;;3.03;2.47;;;20.40;99.90;;;;;;5056806;28;20445;-36
2023/06/04 09:16:18;;;;;;;4.57;2.63;;;20.70;99.90;;;;;;5058718;28;20526;-33
2023/06/04 09:18:45;;;;;;;3.20;2.50;;;20.70;99.90;;;;;;5061277;28;20111;-36
2023/06/04 09:21:10;;;;;;;3.53;2.60;;;21.00;99.90;;;;;;5042121;28;20053;-35
2023/06/04 09:23:49;;;;;;;4.32;2.72;;;21.00;99.90;;;;;;5063682;28;20052;-36
2023/06/04 09:26:14;;;;;;;3.25;2.60;;;21.30;99.90;;;;;;5055964;28;20021;-36
2023/06/04 09:28:44;;;;;;;3.28;2.63;;;21.30;99.90;;;;;;5062874;28;20032;-33
2023/06/04 09:31:14;;;;;;;3.92;2.53;;;21.10;99.90;;;;;;5054578;28;20041;-32
2023/06/04 09:33:48;;;;;;;6.70;2.70;;;21.00;99.90;;;;;;5061597;28;20013;-33
2023/06/04 09:36:14;;;;;;;3.75;2.53;;;21.10;99.90;;;;;;5059023;28;20040;-34
2023/06/04 09:38:41;;;;;;;3.33;2.67;;;21.10;99.90;;;;;;5061016;28;20143;-35
2023/06/04 09:41:19;;;;;;;3.40;2.70;;;21.10;99.90;;;;;;5058456;28;20036;-36
2023/06/04 09:43:45;;;;;;;2.97;2.58;;;21.10;99.90;;;;;;5058322;28;20036;-32
2023/06/04 09:46:15;;;;;;;5.97;2.90;;;21.40;99.90;;;;;;5060070;28;20485;-36
2023/06/04 09:48:42;;;;;;;5.72;3.08;;;21.30;99.90;;;;;;5059437;28;20120;-34
2023/06/04 09:51:08;;;;;;;4.82;2.65;;;21.20;99.90;;;;;;5062826;28;20039;-33
2023/06/04 09:53:34;;;;;;;3.85;2.53;;;21.50;99.90;;;;;;5048195;28;20036;-33
2023/06/04 09:56:03;;;;;;;5.43;3.20;;;21.80;99.90;;;;;;5062944;28;20575;-34
2023/06/04 09:58:29;;;;;;;4.55;2.83;;;21.80;99.90;;;;;;5057643;28;20032;-33
2023/06/04 10:00:57;;;;;;;4.97;2.70;;;22.00;99.90;;;;;;5056987;28;20098;-34
2023/06/04 10:03:30;;;;;;;4.90;3.35;;;22.00;99.90;;;;;;5056362;28;20319;-32
2023/06/04 10:06:01;;;;;;;6.38;3.13;;;21.90;99.90;;;;;;5061099;28;20024;-35
2023/06/04 10:08:28;;;;;;;3.80;2.88;;;21.80;99.90;;;;;;5055261;28;20084;-32
2023/06/04 10:11:02;;;;;;;3.45;2.80;;;21.70;99.90;;;;;;5063350;28;20098;-35
2023/06/04 10:13:34;;;;;;;4.97;2.88;;;21.70;99.90;;;;;;5040500;28;20045;-31
2023/06/04 10:16:01;;;;;;;5.03;3.10;;;22.00;99.90;;;;;;5060918;28;20789;-33
2023/06/04 10:18:28;;;;;;;4.20;3.30;;;22.00;99.90;;;;;;5063131;28;20103;-34
2023/06/04 10:20:58;;;;;;;4.65;3.20;;;22.20;99.90;;;;;;5059934;28;20028;-32
2023/06/04 10:23:24;;;;;;;3.90;3.03;;;21.90;99.90;;;;;;5062051;28;20035;-33
2023/06/04 10:25:52;;;;;;;4.20;3.38;;;21.90;99.90;;;;;;5055704;28;20115;-35
2023/06/04 10:28:19;;;;;;;;;;;22.00;99.90;;;;;;5060874;28;20112;-33
2023/06/04 10:30:44;;;;;;;3.03;2.72;;;22.00;99.90;;;;;;5057811;28;19944;-32
2023/06/04 10:33:10;;;;;;;4.00;2.92;;;22.20;99.90;;;;;;5056055;28;20576;-32
2023/06/04 10:35:36;;;;;;;5.97;3.67;;;22.40;99.90;;;;;;5058162;28;20025;-32
2023/06/04 10:38:08;;;;;;;2.90;2.58;;;22.40;99.90;;;;;;5060104;28;20027;-31
2023/06/04 10:40:35;;;;;;;5.53;3.00;;;22.20;99.90;;;;;;5059552;28;20128;-30
2023/06/04 10:43:11;;;;;;;3.70;3.00;;;22.10;99.90;;;;;;5058192;28;20499;-32
2023/06/04 10:45:38;;;;;;;5.40;2.87;;;22.30;99.90;;;;;;5061737;28;20028;-33
2023/06/04 10:48:12;;;;;;;3.90;3.13;;;22.50;99.90;;;;;;5044792;28;20664;-32
2023/06/04 10:50:52;;;;;;;3.50;2.92;;;22.80;99.90;;;;;;5047037;28;20363;-37
2023/06/04 10:53:19;;;;;;;4.50;2.95;;;23.30;99.90;;;;;;5061214;28;20131;-34
2023/06/04 10:55:47;;;;;;;4.22;2.80;;;23.10;99.90;;;;;;5057823;28;20056;-34
2023/06/04 10:58:13;;;;;;;4.03;2.90;;;22.90;99.90;;;;;;5057102;28;20098;-34
2023/06/04 11:00:48;;;;;;;3.25;2.90;;;23.00;99.90;;;;;;5056923;28;20024;-34
2023/06/04 11:03:14;;;;;;;4.43;2.78;;;23.20;99.90;;;;;;5059480;28;20025;-35
2023/06/04 11:05:42;;;;;;;4.70;3.80;;;23.20;99.90;;;;;;5060894;28;20094;-35
2023/06/04 11:08:10;;;;;;;3.67;3.05;;;23.30;99.90;;;;;;5059841;28;20112;-36
2023/06/04 11:10:38;;;;;;;5.72;3.45;;;23.10;99.90;;;;;;5062798;28;20037;-35
2023/06/04 11:13:04;;;;;;;5.22;3.20;;;22.70;99.90;;;;;;5026865;28;20748;-33
2023/06/04 11:15:44;;;;;;;6.82;3.20;;;23.20;99.90;;;;;;5057185;28;20041;-33
2023/06/04 11:18:18;;;;;;;6.22;3.45;;;23.20;99.90;;;;;;5058692;28;20060;-32
2023/06/04 11:20:46;;;;;;;4.40;3.22;;;23.10;99.90;;;;;;5055474;28;20028;-33
2023/06/04 11:23:13;;;;;;;;;;;23.10;99.90;;;;;;5060237;28;20528;-34
2023/06/04 11:25:38;;;;;;;5.47;3.45;;;23.00;99.90;;;;;;5055527;28;19928;-34
2023/06/04 11:28:04;;;;;;;3.88;3.25;;;22.60;99.90;;;;;;5031651;28;20056;-33
2023/06/04 11:30:30;;;;;;;8.32;3.85;;;22.80;99.90;;;;;;5061302;28;20028;-34
2023/06/04 11:33:03;;;;;;;5.72;3.47;;;23.00;99.90;;;;;;5058198;28;20013;-32
2023/06/04 11:35:29;;;;;;;5.38;3.17;;;23.00;99.90;;;;;;5056577;28;20032;-34
2023/06/04 11:37:56;;;;;;;7.47;3.42;;;23.30;99.90;;;;;;5060801;28;20033;-34
2023/06/04 11:40:22;;;;;;;6.05;3.38;;;23.60;99.90;;;;;;5060569;28;20020;-34
2023/06/04 11:42:49;;;;;;;4.63;3.50;;;23.30;99.90;;;;;;5062338;28;20517;-35
2023/06/04 11:45:16;;;;;;;3.55;3.03;;;23.10;99.90;;;;;;5057790;28;20067;-33
2023/06/04 11:47:47;;;;;;;4.47;3.33;;;22.60;99.90;;;;;;5056808;28;20071;-35
2023/06/04 11:50:13;;;;;;;4.85;3.00;;;22.20;99.90;;;;;;5061413;28;20040;-32
2023/06/04 11:52:38;;;;;;;5.03;3.42;;;22.60;99.90;;;;;;5060148;28;20032;-34
2023/06/04 11:55:09;;;;;;;5.13;3.35;;;22.60;99.90;;;;;;5058108;28;20086;-34
2023/06/04 11:57:35;;;;;;;4.47;3.53;;;22.50;99.90;;;;;;5064294;28;20036;-35
2023/06/04 12:00:02;;;;;;;5.80;3.30;;;22.40;99.90;;;;;;5062263;28;20052;-36
2023/06/04 12:02:27;;;;;;;4.07;3.60;;;22.90;99.90;;;;;;5062156;28;20040;-35
2023/06/04 12:04:53;;;;;;;4.38;3.80;;;23.10;99.90;;;;;;5063760;28;20477;-35
2023/06/04 12:07:25;;;;;;;4.55;3.90;;;23.10;99.90;;;;;;5063928;28;20115;-36
2023/06/04 12:09:51;;;;;;;3.72;3.20;;;22.80;99.90;;;;;;5065340;28;20082;-35
2023/06/04 12:12:23;;;;;;;4.68;3.58;;;22.50;99.90;;;;;;5058919;28;20044;-33
2023/06/04 12:14:57;;;;;;;4.60;3.45;;;21.90;99.90;;;;;;5061882;28;20047;-36
2023/06/04 12:17:24;;;;;;;6.88;3.42;;;21.70;99.90;;;;;;5066338;28;20099;-34
2023/06/04 12:19:51;;;;;;;9.65;4.03;;;21.60;99.90;;;;;;5062406;28;20442;-35
2023/06/04 12:22:17;;;;;;;5.32;3.83;;;21.50;99.90;;;;;;5060211;28;20077;-34
2023/06/04 12:24:53;;;;;;;4.53;3.78;;;21.50;99.90;;;;;;5060653;28;20016;-35
2023/06/04 12:27:21;;;;;;;6.13;3.60;;;22.10;99.90;;;;;;5061996;28;20029;-33
2023/06/04 12:29:55;;;;;;;;;;;22.70;99.90;;;;;;5064098;28;20498;-33
2023/06/04 12:32:21;;;;;;;3.97;3.10;;;23.10;99.90;;;;;;5063912;28;19912;-34
2023/06/04 12:34:48;;;;;;;5.15;3.42;;;23.20;99.90;;;;;;5061462;28;20047;-32
2023/06/04 12:37:14;;;;;;;6.38;3.25;;;23.30;99.90;;;;;;5065260;28;20506;-34
2023/06/04 12:39:40;;;;;;;5.75;3.50;;;23.40;99.90;;;;;;5063346;28;20130;-34
2023/06/04 12:42:07;;;;;;;5.57;3.45;;;23.40;99.90;;;;;;5031074;28;20441;-35
2023/06/04 12:44:33;;;;;;;5.22;3.30;;;23.50;99.90;;;;;;5060021;28;20029;-34
2023/06/04 12:46:58;;;;;;;4.65;3.20;;;23.40;99.90;;;;;;5042551;28;20044;-34